sensor_id;sensor_type;location;lat;lon;timestamp;pressure;altitude;pressure_sealevel;temperature;humidity
74065;BME280;62421;51.412;5.432;2022-08-19T00:02:20;101189.47;;;17.69;83.37
74065;BME280;62421;51.412;5.432;2022-08-19T00:04:46;101191.59;;;17.66;83.41
74065;BME280;62421;51.412;5.432;2022-08-19T00:07:13;101181.19;;;17.61;83.22
74065;BME280;62421;51.412;5.432;2022-08-19T00:09:39;101187.47;;;17.61;83.52
74065;BME280;62421;51.412;5.432;2022-08-19T00:12:04;101191.06;;;17.52;83.54
74065;BME280;62421;51.412;5.432;2022-08-19T00:14:30;101188.47;;;17.51;83.70
74065;BME280;62421;51.412;5.432;2022-08-19T00:16:56;101192.19;;;17.50;83.92
74065;BME280;62421;51.412;5.432;2022-08-19T00:19:22;101194.06;;;17.49;83.74
74065;BME280;62421;51.412;5.432;2022-08-19T00:21:48;101195.22;;;17.47;83.89
74065;BME280;62421;51.412;5.432;2022-08-19T00:24:14;101195.34;;;17.45;83.81
74065;BME280;62421;51.412;5.432;2022-08-19T00:26:41;101198.94;;;17.36;83.66
74065;BME280;62421;51.412;5.432;2022-08-19T00:29:08;101200.22;;;17.32;84.12
74065;BME280;62421;51.412;5.432;2022-08-19T00:31:34;101201.22;;;17.31;84.53
74065;BME280;62421;51.412;5.432;2022-08-19T00:33:59;101200.91;;;17.24;84.59
74065;BME280;62421;51.412;5.432;2022-08-19T00:36:25;101199.78;;;17.27;84.58
74065;BME280;62421;51.412;5.432;2022-08-19T00:38:50;101195.38;;;17.26;84.75
74065;BME280;62421;51.412;5.432;2022-08-19T00:41:19;101200.78;;;17.26;84.86
74065;BME280;62421;51.412;5.432;2022-08-19T00:44:05;101200.06;;;17.24;83.68
74065;BME280;62421;51.412;5.432;2022-08-19T00:46:33;101194.91;;;17.20;84.63
74065;BME280;62421;51.412;5.432;2022-08-19T00:48:59;101205.75;;;17.20;84.63
74065;BME280;62421;51.412;5.432;2022-08-19T00:51:27;101205.94;;;17.19;84.61
74065;BME280;62421;51.412;5.432;2022-08-19T00:53:56;101207.22;;;17.15;84.82
74065;BME280;62421;51.412;5.432;2022-08-19T00:56:23;101197.50;;;17.12;85.36
74065;BME280;62421;51.412;5.432;2022-08-19T00:58:48;101206.34;;;17.14;84.95
74065;BME280;62421;51.412;5.432;2022-08-19T01:01:14;101203.31;;;17.08;85.05
74065;BME280;62421;51.412;5.432;2022-08-19T01:03:40;101203.63;;;17.05;85.48
74065;BME280;62421;51.412;5.432;2022-08-19T01:06:06;101203.75;;;17.03;85.55
74065;BME280;62421;51.412;5.432;2022-08-19T01:08:31;101198.50;;;17.02;85.72
74065;BME280;62421;51.412;5.432;2022-08-19T01:10:59;101199.34;;;17.02;85.75
74065;BME280;62421;51.412;5.432;2022-08-19T01:13:28;101197.06;;;16.97;86.17
74065;BME280;62421;51.412;5.432;2022-08-19T01:15:58;101192.47;;;16.98;85.82
74065;BME280;62421;51.412;5.432;2022-08-19T01:18:26;101193.63;;;16.95;86.23
74065;BME280;62421;51.412;5.432;2022-08-19T01:20:54;101192.31;;;16.90;86.74
74065;BME280;62421;51.412;5.432;2022-08-19T01:23:21;101183.91;;;16.93;86.56
74065;BME280;62421;51.412;5.432;2022-08-19T01:25:50;101184.06;;;16.91;87.74
74065;BME280;62421;51.412;5.432;2022-08-19T01:28:21;101195.03;;;16.90;87.36
74065;BME280;62421;51.412;5.432;2022-08-19T01:30:46;101187.75;;;16.90;87.99
74065;BME280;62421;51.412;5.432;2022-08-19T01:33:13;101197.16;;;16.86;87.72
74065;BME280;62421;51.412;5.432;2022-08-19T01:35:39;101196.91;;;16.89;87.83
74065;BME280;62421;51.412;5.432;2022-08-19T01:38:07;101197.31;;;16.85;88.10
74065;BME280;62421;51.412;5.432;2022-08-19T01:40:35;101210.16;;;16.83;88.05
74065;BME280;62421;51.412;5.432;2022-08-19T01:43:03;101201.41;;;16.79;88.02
74065;BME280;62421;51.412;5.432;2022-08-19T01:45:31;101198.59;;;16.81;88.30
74065;BME280;62421;51.412;5.432;2022-08-19T01:47:57;101189.84;;;16.77;88.36
74065;BME280;62421;51.412;5.432;2022-08-19T01:50:23;101191.81;;;16.75;88.35
74065;BME280;62421;51.412;5.432;2022-08-19T01:52:48;101196.28;;;16.76;87.92
74065;BME280;62421;51.412;5.432;2022-08-19T01:55:18;101198.69;;;16.69;88.12
74065;BME280;62421;51.412;5.432;2022-08-19T01:57:48;101211.09;;;16.72;87.90
74065;BME280;62421;51.412;5.432;2022-08-19T02:00:17;101210.63;;;16.67;87.99
74065;BME280;62421;51.412;5.432;2022-08-19T02:02:43;101215.34;;;16.65;88.68
74065;BME280;62421;51.412;5.432;2022-08-19T02:05:10;101217.19;;;16.64;88.43
74065;BME280;62421;51.412;5.432;2022-08-19T02:07:37;101213.50;;;16.65;88.53
74065;BME280;62421;51.412;5.432;2022-08-19T02:10:05;101214.50;;;16.64;88.41
74065;BME280;62421;51.412;5.432;2022-08-19T02:12:32;101218.34;;;16.62;88.24
74065;BME280;62421;51.412;5.432;2022-08-19T02:14:58;101225.75;;;16.59;88.35
74065;BME280;62421;51.412;5.432;2022-08-19T02:17:23;101227.00;;;16.55;87.92
74065;BME280;62421;51.412;5.432;2022-08-19T02:19:49;101221.88;;;16.52;88.12
74065;BME280;62421;51.412;5.432;2022-08-19T02:22:14;101227.88;;;16.56;87.77
74065;BME280;62421;51.412;5.432;2022-08-19T02:24:39;101225.72;;;16.50;87.93
74065;BME280;62421;51.412;5.432;2022-08-19T02:27:05;101229.53;;;16.47;87.83
74065;BME280;62421;51.412;5.432;2022-08-19T02:29:30;101233.69;;;16.42;87.88
74065;BME280;62421;51.412;5.432;2022-08-19T02:31:56;101233.53;;;16.43;87.55
74065;BME280;62421;51.412;5.432;2022-08-19T02:34:21;101228.38;;;16.40;87.74
74065;BME280;62421;51.412;5.432;2022-08-19T02:36:46;101237.91;;;16.34;87.28
74065;BME280;62421;51.412;5.432;2022-08-19T02:39:12;101228.94;;;16.34;87.25
74065;BME280;62421;51.412;5.432;2022-08-19T02:41:37;101240.78;;;16.33;87.15
74065;BME280;62421;51.412;5.432;2022-08-19T02:44:03;101246.44;;;16.30;86.88
74065;BME280;62421;51.412;5.432;2022-08-19T02:46:31;101244.88;;;16.27;87.12
74065;BME280;62421;51.412;5.432;2022-08-19T02:49:03;101245.28;;;16.23;87.21
74065;BME280;62421;51.412;5.432;2022-08-19T02:51:39;101246.25;;;16.22;87.40
74065;BME280;62421;51.412;5.432;2022-08-19T02:54:06;101237.56;;;16.18;87.76
74065;BME280;62421;51.412;5.432;2022-08-19T02:56:34;101244.56;;;16.21;87.63
74065;BME280;62421;51.412;5.432;2022-08-19T02:59:00;101236.31;;;16.22;87.73
74065;BME280;62421;51.412;5.432;2022-08-19T03:01:30;101234.69;;;16.20;87.78
74065;BME280;62421;51.412;5.432;2022-08-19T03:03:57;101229.69;;;16.15;88.27
74065;BME280;62421;51.412;5.432;2022-08-19T03:06:24;101241.25;;;16.17;87.86
74065;BME280;62421;51.412;5.432;2022-08-19T03:08:50;101236.09;;;16.14;88.10
74065;BME280;62421;51.412;5.432;2022-08-19T03:11:21;101234.38;;;16.13;87.95
74065;BME280;62421;51.412;5.432;2022-08-19T03:13:47;101246.34;;;16.10;88.33
74065;BME280;62421;51.412;5.432;2022-08-19T03:16:15;101240.06;;;16.10;88.63
74065;BME280;62421;51.412;5.432;2022-08-19T03:18:41;101246.34;;;16.10;88.09
74065;BME280;62421;51.412;5.432;2022-08-19T03:21:07;101246.63;;;16.07;88.25
74065;BME280;62421;51.412;5.432;2022-08-19T03:23:33;101239.63;;;16.05;88.29
74065;BME280;62421;51.412;5.432;2022-08-19T03:25:59;101245.28;;;16.02;88.79
74065;BME280;62421;51.412;5.432;2022-08-19T03:28:29;101244.56;;;16.00;88.61
74065;BME280;62421;51.412;5.432;2022-08-19T03:31:00;101249.41;;;15.96;88.59
74065;BME280;62421;51.412;5.432;2022-08-19T03:33:28;101244.13;;;15.94;89.33
74065;BME280;62421;51.412;5.432;2022-08-19T03:36:03;101241.41;;;15.94;88.84
74065;BME280;62421;51.412;5.432;2022-08-19T03:38:30;101233.53;;;15.91;89.46
74065;BME280;62421;51.412;5.432;2022-08-19T03:40:55;101231.72;;;15.92;89.53
74065;BME280;62421;51.412;5.432;2022-08-19T03:43:21;101229.00;;;15.92;89.43
74065;BME280;62421;51.412;5.432;2022-08-19T03:45:46;101224.69;;;15.89;89.24
74065;BME280;62421;51.412;5.432;2022-08-19T03:48:14;101221.97;;;15.89;89.39
74065;BME280;62421;51.412;5.432;2022-08-19T03:50:40;101228.41;;;15.88;88.85
74065;BME280;62421;51.412;5.432;2022-08-19T03:53:06;101225.81;;;15.87;89.03
74065;BME280;62421;51.412;5.432;2022-08-19T03:55:38;101225.09;;;15.85;89.05
74065;BME280;62421;51.412;5.432;2022-08-19T03:58:03;101237.78;;;15.84;88.97
74065;BME280;62421;51.412;5.432;2022-08-19T04:00:29;101232.88;;;15.78;88.79
74065;BME280;62421;51.412;5.432;2022-08-19T04:02:54;101237.44;;;15.77;88.91
74065;BME280;62421;51.412;5.432;2022-08-19T04:05:19;101235.72;;;15.76;88.91
74065;BME280;62421;51.412;5.432;2022-08-19T04:07:45;101231.41;;;15.74;88.99
74065;BME280;62421;51.412;5.432;2022-08-19T04:10:11;101226.00;;;15.74;88.94
74065;BME280;62421;51.412;5.432;2022-08-19T04:12:36;101224.44;;;15.71;88.80
74065;BME280;62421;51.412;5.432;2022-08-19T04:15:02;101229.84;;;15.71;88.72
74065;BME280;62421;51.412;5.432;2022-08-19T04:17:28;101219.50;;;15.65;89.35
74065;BME280;62421;51.412;5.432;2022-08-19T04:19:53;101232.31;;;15.63;89.37
74065;BME280;62421;51.412;5.432;2022-08-19T04:22:18;101231.75;;;15.60;88.84
74065;BME280;62421;51.412;5.432;2022-08-19T04:24:44;101226.31;;;15.60;88.83
74065;BME280;62421;51.412;5.432;2022-08-19T04:27:09;101227.41;;;15.57;88.95
74065;BME280;62421;51.412;5.432;2022-08-19T04:29:34;101223.13;;;15.54;88.90
74065;BME280;62421;51.412;5.432;2022-08-19T04:32:00;101223.97;;;15.55;89.32
74065;BME280;62421;51.412;5.432;2022-08-19T04:34:27;101225.97;;;15.53;88.99
74065;BME280;62421;51.412;5.432;2022-08-19T04:36:57;101223.13;;;15.54;89.16
74065;BME280;62421;51.412;5.432;2022-08-19T04:39:28;101228.41;;;15.56;88.79
74065;BME280;62421;51.412;5.432;2022-08-19T04:42:13;101223.13;;;15.54;88.87
74065;BME280;62421;51.412;5.432;2022-08-19T04:44:57;101221.56;;;15.52;89.35
74065;BME280;62421;51.412;5.432;2022-08-19T04:47:23;101217.84;;;15.53;89.29
74065;BME280;62421;51.412;5.432;2022-08-19T04:49:49;101225.72;;;15.56;89.18
74065;BME280;62421;51.412;5.432;2022-08-19T04:52:14;101229.28;;;15.56;89.22
74065;BME280;62421;51.412;5.432;2022-08-19T04:54:39;101232.09;;;15.55;89.19
74065;BME280;62421;51.412;5.432;2022-08-19T04:57:07;101243.81;;;15.55;89.41
74065;BME280;62421;51.412;5.432;2022-08-19T04:59:34;101242.34;;;15.51;88.66
74065;BME280;62421;51.412;5.432;2022-08-19T05:01:59;101239.66;;;15.51;88.78
74065;BME280;62421;51.412;5.432;2022-08-19T05:04:24;101243.31;;;15.50;89.17
74065;BME280;62421;51.412;5.432;2022-08-19T05:06:50;101244.06;;;15.52;89.18
74065;BME280;62421;51.412;5.432;2022-08-19T05:09:16;101254.75;;;15.54;88.99
74065;BME280;62421;51.412;5.432;2022-08-19T05:11:43;101259.56;;;15.50;88.76
74065;BME280;62421;51.412;5.432;2022-08-19T05:14:09;101257.84;;;15.49;88.89
74065;BME280;62421;51.412;5.432;2022-08-19T05:16:37;101258.31;;;15.54;88.70
74065;BME280;62421;51.412;5.432;2022-08-19T05:19:02;101261.88;;;15.55;88.89
74065;BME280;62421;51.412;5.432;2022-08-19T05:21:46;101264.22;;;15.60;89.75
74065;BME280;62421;51.412;5.432;2022-08-19T05:24:30;101275.91;;;15.60;88.70
74065;BME280;62421;51.412;5.432;2022-08-19T05:26:59;101271.78;;;15.66;88.78
74065;BME280;62421;51.412;5.432;2022-08-19T05:29:26;101267.84;;;15.70;88.98
74065;BME280;62421;51.412;5.432;2022-08-19T05:31:53;101290.22;;;15.83;88.30
74065;BME280;62421;51.412;5.432;2022-08-19T05:34:20;101293.09;;;15.91;88.56
74065;BME280;62421;51.412;5.432;2022-08-19T05:36:49;101295.19;;;15.99;88.55
74065;BME280;62421;51.412;5.432;2022-08-19T05:39:17;101290.22;;;16.04;88.10
74065;BME280;62421;51.412;5.432;2022-08-19T05:41:50;101292.50;;;16.09;88.22
74065;BME280;62421;51.412;5.432;2022-08-19T05:44:16;101295.72;;;16.14;87.67
74065;BME280;62421;51.412;5.432;2022-08-19T05:46:43;101295.19;;;16.20;87.61
74065;BME280;62421;51.412;5.432;2022-08-19T05:49:13;101302.06;;;16.24;87.73
74065;BME280;62421;51.412;5.432;2022-08-19T05:51:38;101301.50;;;16.30;87.60
74065;BME280;62421;51.412;5.432;2022-08-19T05:54:05;101288.13;;;16.38;87.09
74065;BME280;62421;51.412;5.432;2022-08-19T05:56:32;101281.31;;;16.44;87.56
74065;BME280;62421;51.412;5.432;2022-08-19T05:59:02;101282.66;;;16.50;87.23
74065;BME280;62421;51.412;5.432;2022-08-19T06:01:27;101279.13;;;16.59;86.51
74065;BME280;62421;51.412;5.432;2022-08-19T06:03:53;101282.28;;;16.64;86.40
74065;BME280;62421;51.412;5.432;2022-08-19T06:06:19;101292.56;;;16.70;86.59
74065;BME280;62421;51.412;5.432;2022-08-19T06:08:45;101276.91;;;16.74;86.61
74065;BME280;62421;51.412;5.432;2022-08-19T06:11:33;101268.47;;;16.77;86.18
74065;BME280;62421;51.412;5.432;2022-08-19T06:14:01;101283.50;;;16.81;86.03
74065;BME280;62421;51.412;5.432;2022-08-19T06:16:28;101270.53;;;16.85;85.79
74065;BME280;62421;51.412;5.432;2022-08-19T06:18:56;101269.84;;;16.92;85.77
74065;BME280;62421;51.412;5.432;2022-08-19T06:21:24;101282.13;;;16.96;85.87
74065;BME280;62421;51.412;5.432;2022-08-19T06:23:51;101280.13;;;16.98;86.15
74065;BME280;62421;51.412;5.432;2022-08-19T06:26:18;101278.13;;;17.01;85.38
74065;BME280;62421;51.412;5.432;2022-08-19T06:28:44;101275.16;;;17.04;86.06
74065;BME280;62421;51.412;5.432;2022-08-19T06:31:20;101275.59;;;17.09;85.43
74065;BME280;62421;51.412;5.432;2022-08-19T06:33:47;101275.16;;;17.13;85.78
74065;BME280;62421;51.412;5.432;2022-08-19T06:38:42;101281.47;;;17.24;85.69
74065;BME280;62421;51.412;5.432;2022-08-19T06:41:08;101275.63;;;17.28;85.57
74065;BME280;62421;51.412;5.432;2022-08-19T06:43:33;101272.94;;;17.38;85.65
74065;BME280;62421;51.412;5.432;2022-08-19T06:45:59;101281.38;;;17.45;84.94
74065;BME280;62421;51.412;5.432;2022-08-19T06:48:26;101281.22;;;17.56;84.72
74065;BME280;62421;51.412;5.432;2022-08-19T06:50:51;101275.06;;;17.64;84.62
74065;BME280;62421;51.412;5.432;2022-08-19T06:53:17;101277.50;;;17.67;84.50
74065;BME280;62421;51.412;5.432;2022-08-19T06:55:44;101267.78;;;17.74;84.65
74065;BME280;62421;51.412;5.432;2022-08-19T06:58:10;101275.66;;;17.87;84.26
74065;BME280;62421;51.412;5.432;2022-08-19T07:00:36;101269.78;;;18.01;83.69
74065;BME280;62421;51.412;5.432;2022-08-19T07:03:02;101277.06;;;18.10;84.17
74065;BME280;62421;51.412;5.432;2022-08-19T07:05:27;101273.47;;;18.19;83.48
74065;BME280;62421;51.412;5.432;2022-08-19T07:07:53;101275.16;;;18.30;83.65
74065;BME280;62421;51.412;5.432;2022-08-19T07:10:18;101288.72;;;18.40;83.73
74065;BME280;62421;51.412;5.432;2022-08-19T07:12:44;101279.94;;;18.56;82.15
74065;BME280;62421;51.412;5.432;2022-08-19T07:15:10;101280.03;;;18.74;82.78
74065;BME280;62421;51.412;5.432;2022-08-19T07:17:36;101277.25;;;18.83;81.62
74065;BME280;62421;51.412;5.432;2022-08-19T07:20:05;101284.47;;;19.02;80.92
74065;BME280;62421;51.412;5.432;2022-08-19T07:22:31;101290.13;;;19.19;80.00
74065;BME280;62421;51.412;5.432;2022-08-19T07:24:57;101295.47;;;19.29;79.69
74065;BME280;62421;51.412;5.432;2022-08-19T07:27:23;101295.34;;;19.30;77.98
74065;BME280;62421;51.412;5.432;2022-08-19T07:29:48;101291.38;;;19.42;79.29
74065;BME280;62421;51.412;5.432;2022-08-19T07:32:13;101293.03;;;19.53;79.39
74065;BME280;62421;51.412;5.432;2022-08-19T07:34:45;101293.19;;;19.70;78.47
74065;BME280;62421;51.412;5.432;2022-08-19T07:37:11;101289.72;;;19.77;77.23
74065;BME280;62421;51.412;5.432;2022-08-19T07:39:37;101295.38;;;19.84;77.38
74065;BME280;62421;51.412;5.432;2022-08-19T07:42:06;101296.53;;;19.99;77.20
74065;BME280;62421;51.412;5.432;2022-08-19T07:44:33;101293.31;;;20.22;76.98
74065;BME280;62421;51.412;5.432;2022-08-19T07:47:00;101309.00;;;20.28;76.08
74065;BME280;62421;51.412;5.432;2022-08-19T07:49:26;101314.91;;;20.41;75.54
74065;BME280;62421;51.412;5.432;2022-08-19T07:52:04;101312.75;;;20.53;75.96
74065;BME280;62421;51.412;5.432;2022-08-19T07:54:32;101316.75;;;20.59;75.68
74065;BME280;62421;51.412;5.432;2022-08-19T07:56:59;101319.19;;;20.70;75.37
74065;BME280;62421;51.412;5.432;2022-08-19T07:59:26;101318.00;;;20.73;74.37
74065;BME280;62421;51.412;5.432;2022-08-19T08:01:51;101318.28;;;20.61;74.81
74065;BME280;62421;51.412;5.432;2022-08-19T08:04:18;101320.59;;;20.56;74.35
74065;BME280;62421;51.412;5.432;2022-08-19T08:07:03;101314.47;;;20.54;74.38
74065;BME280;62421;51.412;5.432;2022-08-19T08:09:48;101320.38;;;20.68;74.15
74065;BME280;62421;51.412;5.432;2022-08-19T08:12:19;101330.50;;;20.83;74.00
74065;BME280;62421;51.412;5.432;2022-08-19T08:14:49;101330.59;;;21.00;73.12
74065;BME280;62421;51.412;5.432;2022-08-19T08:17:16;101320.06;;;21.13;72.98
74065;BME280;62421;51.412;5.432;2022-08-19T08:19:43;101335.63;;;21.21;72.11
74065;BME280;62421;51.412;5.432;2022-08-19T08:22:11;101337.88;;;21.25;71.59
74065;BME280;62421;51.412;5.432;2022-08-19T08:25:00;101335.13;;;21.25;71.93
74065;BME280;62421;51.412;5.432;2022-08-19T08:27:26;101341.59;;;21.24;71.32
74065;BME280;62421;51.412;5.432;2022-08-19T08:29:54;101343.28;;;21.17;71.00
74065;BME280;62421;51.412;5.432;2022-08-19T08:32:20;101336.56;;;21.03;72.00
74065;BME280;62421;51.412;5.432;2022-08-19T08:34:45;101347.38;;;21.13;71.55
74065;BME280;62421;51.412;5.432;2022-08-19T08:37:10;101345.16;;;21.17;71.24
74065;BME280;62421;51.412;5.432;2022-08-19T08:39:36;101356.41;;;21.14;71.82
74065;BME280;62421;51.412;5.432;2022-08-19T08:44:46;101355.22;;;21.08;71.63
74065;BME280;62421;51.412;5.432;2022-08-19T08:47:17;101365.44;;;21.06;71.43
74065;BME280;62421;51.412;5.432;2022-08-19T08:49:48;101356.44;;;21.22;71.32
74065;BME280;62421;51.412;5.432;2022-08-19T08:52:25;101346.16;;;21.50;71.11
74065;BME280;62421;51.412;5.432;2022-08-19T08:54:55;101348.25;;;21.64;69.44
74065;BME280;62421;51.412;5.432;2022-08-19T08:57:29;101339.19;;;21.64;69.01
74065;BME280;62421;51.412;5.432;2022-08-19T09:00:00;101350.47;;;21.77;69.23
74065;BME280;62421;51.412;5.432;2022-08-19T09:02:27;101345.03;;;22.02;68.08
74065;BME280;62421;51.412;5.432;2022-08-19T09:04:54;101342.13;;;22.03;68.03
74065;BME280;62421;51.412;5.432;2022-08-19T09:10:15;101354.75;;;22.21;67.94
74065;BME280;62421;51.412;5.432;2022-08-19T09:15:13;101348.66;;;22.27;67.16
74065;BME280;62421;51.412;5.432;2022-08-19T09:17:39;101348.59;;;22.11;67.40
74065;BME280;62421;51.412;5.432;2022-08-19T09:22:40;101356.63;;;21.71;68.90
74065;BME280;62421;51.412;5.432;2022-08-19T09:25:07;101360.00;;;21.65;68.34
74065;BME280;62421;51.412;5.432;2022-08-19T09:27:36;101368.75;;;21.68;68.28
74065;BME280;62421;51.412;5.432;2022-08-19T09:30:03;101363.97;;;21.87;67.90
74065;BME280;62421;51.412;5.432;2022-08-19T09:32:29;101365.72;;;21.96;67.24
74065;BME280;62421;51.412;5.432;2022-08-19T09:34:55;101363.63;;;21.98;67.95
74065;BME280;62421;51.412;5.432;2022-08-19T09:37:24;101363.81;;;21.88;68.38
74065;BME280;62421;51.412;5.432;2022-08-19T09:39:49;101371.47;;;21.68;68.69
74065;BME280;62421;51.412;5.432;2022-08-19T09:42:15;101368.50;;;21.45;69.54
74065;BME280;62421;51.412;5.432;2022-08-19T09:44:41;101370.81;;;21.32;69.69
74065;BME280;62421;51.412;5.432;2022-08-19T09:47:08;101365.47;;;21.22;69.68
74065;BME280;62421;51.412;5.432;2022-08-19T09:49:34;101372.72;;;21.32;69.38
74065;BME280;62421;51.412;5.432;2022-08-19T09:52:00;101372.25;;;21.44;68.91
74065;BME280;62421;51.412;5.432;2022-08-19T09:54:25;101368.22;;;21.65;68.10
74065;BME280;62421;51.412;5.432;2022-08-19T09:56:55;101376.28;;;21.99;67.82
74065;BME280;62421;51.412;5.432;2022-08-19T09:59:21;101373.38;;;22.17;66.85
74065;BME280;62421;51.412;5.432;2022-08-19T10:01:46;101374.44;;;22.33;67.71
74065;BME280;62421;51.412;5.432;2022-08-19T10:04:12;101370.53;;;22.35;66.92
74065;BME280;62421;51.412;5.432;2022-08-19T10:06:39;101374.28;;;22.42;66.20
74065;BME280;62421;51.412;5.432;2022-08-19T10:09:06;101365.38;;;22.48;66.28
74065;BME280;62421;51.412;5.432;2022-08-19T10:11:33;101378.69;;;22.43;65.61
74065;BME280;62421;51.412;5.432;2022-08-19T10:14:01;101375.47;;;22.40;66.13
74065;BME280;62421;51.412;5.432;2022-08-19T10:16:27;101364.53;;;22.40;66.70
74065;BME280;62421;51.412;5.432;2022-08-19T10:18:53;101366.75;;;22.36;66.07
74065;BME280;62421;51.412;5.432;2022-08-19T10:21:21;101378.69;;;22.19;66.60
74065;BME280;62421;51.412;5.432;2022-08-19T10:23:51;101369.78;;;22.08;66.93
74065;BME280;62421;51.412;5.432;2022-08-19T10:26:23;101375.25;;;22.00;68.00
74065;BME280;62421;51.412;5.432;2022-08-19T10:28:49;101368.78;;;22.01;67.18
74065;BME280;62421;51.412;5.432;2022-08-19T10:31:17;101378.84;;;22.09;68.03
74065;BME280;62421;51.412;5.432;2022-08-19T10:33:45;101375.63;;;22.05;66.71
74065;BME280;62421;51.412;5.432;2022-08-19T10:36:19;101374.41;;;22.00;66.76
74065;BME280;62421;51.412;5.432;2022-08-19T10:38:47;101369.63;;;21.85;67.63
74065;BME280;62421;51.412;5.432;2022-08-19T10:41:18;101379.50;;;21.78;68.53
74065;BME280;62421;51.412;5.432;2022-08-19T10:43:44;101373.53;;;21.66;68.81
74065;BME280;62421;51.412;5.432;2022-08-19T10:46:13;101372.81;;;21.56;67.42
74065;BME280;62421;51.412;5.432;2022-08-19T10:48:40;101366.66;;;21.54;68.18
74065;BME280;62421;51.412;5.432;2022-08-19T10:51:06;101368.91;;;21.67;68.74
74065;BME280;62421;51.412;5.432;2022-08-19T10:53:50;101366.88;;;21.94;67.23
74065;BME280;62421;51.412;5.432;2022-08-19T10:56:17;101360.91;;;22.15;66.36
74065;BME280;62421;51.412;5.432;2022-08-19T10:59:02;101347.75;;;22.35;64.90
74065;BME280;62421;51.412;5.432;2022-08-19T11:01:29;101351.84;;;22.63;66.68
74065;BME280;62421;51.412;5.432;2022-08-19T11:03:56;101354.19;;;22.83;63.70
74065;BME280;62421;51.412;5.432;2022-08-19T11:06:23;101361.34;;;23.00;64.13
74065;BME280;62421;51.412;5.432;2022-08-19T11:08:50;101358.97;;;23.37;64.53
74065;BME280;62421;51.412;5.432;2022-08-19T11:11:16;101345.72;;;23.71;61.74
74065;BME280;62421;51.412;5.432;2022-08-19T11:13:41;101343.50;;;23.98;61.89
74065;BME280;62421;51.412;5.432;2022-08-19T11:16:13;101340.06;;;24.19;61.00
74065;BME280;62421;51.412;5.432;2022-08-19T11:18:50;101352.25;;;24.40;60.48
74065;BME280;62421;51.412;5.432;2022-08-19T11:21:20;101346.50;;;24.49;58.37
74065;BME280;62421;51.412;5.432;2022-08-19T11:23:47;101345.56;;;24.57;58.77
74065;BME280;62421;51.412;5.432;2022-08-19T11:26:14;101347.25;;;24.58;59.57
74065;BME280;62421;51.412;5.432;2022-08-19T11:28:40;101338.03;;;24.74;58.90
74065;BME280;62421;51.412;5.432;2022-08-19T11:31:19;101339.81;;;24.82;58.76
74065;BME280;62421;51.412;5.432;2022-08-19T11:33:45;101338.03;;;24.89;58.12
74065;BME280;62421;51.412;5.432;2022-08-19T11:36:11;101338.03;;;24.89;57.74
74065;BME280;62421;51.412;5.432;2022-08-19T11:38:37;101334.41;;;24.88;57.14
74065;BME280;62421;51.412;5.432;2022-08-19T11:41:05;101328.44;;;24.85;57.19
74065;BME280;62421;51.412;5.432;2022-08-19T11:43:35;101331.56;;;24.82;56.93
74065;BME280;62421;51.412;5.432;2022-08-19T11:46:06;101331.56;;;24.67;57.75
74065;BME280;62421;51.412;5.432;2022-08-19T11:48:32;101329.69;;;24.67;57.66
74065;BME280;62421;51.412;5.432;2022-08-19T11:50:58;101332.31;;;24.61;58.59
74065;BME280;62421;51.412;5.432;2022-08-19T11:53:23;101325.13;;;24.60;56.42
74065;BME280;62421;51.412;5.432;2022-08-19T11:55:50;101320.31;;;24.62;57.62
74065;BME280;62421;51.412;5.432;2022-08-19T11:58:18;101321.44;;;24.67;57.02
74065;BME280;62421;51.412;5.432;2022-08-19T12:00:44;101331.38;;;24.68;57.34
74065;BME280;62421;51.412;5.432;2022-08-19T12:03:11;101338.78;;;24.68;57.73
74065;BME280;62421;51.412;5.432;2022-08-19T12:05:38;101334.41;;;24.59;59.32
74065;BME280;62421;51.412;5.432;2022-08-19T12:08:04;101336.69;;;24.70;58.83
74065;BME280;62421;51.412;5.432;2022-08-19T12:10:29;101340.56;;;24.90;57.85
74065;BME280;62421;51.412;5.432;2022-08-19T12:12:55;101338.03;;;24.89;57.42
74065;BME280;62421;51.412;5.432;2022-08-19T12:15:20;101340.66;;;24.97;56.93
74065;BME280;62421;51.412;5.432;2022-08-19T12:17:45;101342.47;;;24.90;57.06
74065;BME280;62421;51.412;5.432;2022-08-19T12:20:12;101348.78;;;24.90;57.39
74065;BME280;62421;51.412;5.432;2022-08-19T12:22:40;101345.19;;;24.90;57.69
74065;BME280;62421;51.412;5.432;2022-08-19T12:25:07;101338.56;;;24.99;57.58
74065;BME280;62421;51.412;5.432;2022-08-19T12:27:32;101336.56;;;25.08;57.43
74065;BME280;62421;51.412;5.432;2022-08-19T12:29:57;101326.06;;;25.11;58.28
74065;BME280;62421;51.412;5.432;2022-08-19T12:32:26;101331.28;;;25.06;57.77
74065;BME280;62421;51.412;5.432;2022-08-19T12:34:51;101328.91;;;24.73;58.12
74065;BME280;62421;51.412;5.432;2022-08-19T12:37:17;101324.66;;;24.71;58.01
74065;BME280;62421;51.412;5.432;2022-08-19T12:39:42;101328.16;;;24.80;58.92
74065;BME280;62421;51.412;5.432;2022-08-19T12:42:10;101326.72;;;24.84;60.16
74065;BME280;62421;51.412;5.432;2022-08-19T12:44:38;101331.56;;;24.82;59.07
74065;BME280;62421;51.412;5.432;2022-08-19T12:47:04;101331.09;;;24.78;58.64
74065;BME280;62421;51.412;5.432;2022-08-19T12:49:30;101328.38;;;24.93;58.87
74065;BME280;62421;51.412;5.432;2022-08-19T12:51:56;101330.63;;;25.04;57.78
74065;BME280;62421;51.412;5.432;2022-08-19T12:54:23;101325.69;;;25.14;58.53
74065;BME280;62421;51.412;5.432;2022-08-19T12:56:48;101332.22;;;25.28;58.03
74065;BME280;62421;51.412;5.432;2022-08-19T12:59:13;101323.78;;;25.15;58.27
74065;BME280;62421;51.412;5.432;2022-08-19T13:01:40;101314.41;;;24.80;59.58
74065;BME280;62421;51.412;5.432;2022-08-19T13:04:06;101310.47;;;24.67;60.30
74065;BME280;62421;51.412;5.432;2022-08-19T13:06:32;101303.84;;;24.77;60.50